createdAt,value
2023-05-14T00:01:46.429Z,8.53
2023-05-14T00:04:14.423Z,9.40
2023-05-14T00:06:42.379Z,8.93
2023-05-14T00:09:11.745Z,10.00
2023-05-14T00:11:39.752Z,9.40
2023-05-14T00:14:07.757Z,9.10
2023-05-14T00:16:36.054Z,9.33
2023-05-14T00:19:04.189Z,10.50
2023-05-14T00:21:32.649Z,10.90
2023-05-14T00:24:00.632Z,10.53
2023-05-14T00:26:29.970Z,9.93
2023-05-14T00:28:57.880Z,9.70
2023-05-14T00:31:25.904Z,10.20
2023-05-14T00:33:54.068Z,11.50
2023-05-14T00:36:22.015Z,11.33
2023-05-14T00:38:50.492Z,9.90
2023-05-14T00:41:18.458Z,9.30
2023-05-14T00:43:47.765Z,9.07
2023-05-14T00:46:16.344Z,9.90
2023-05-14T00:48:45.238Z,10.33
2023-05-14T00:51:13.354Z,9.57
2023-05-14T00:53:42.174Z,10.43
2023-05-14T00:56:10.687Z,9.80
2023-05-14T00:58:38.853Z,10.87
2023-05-14T01:01:08.379Z,10.43
2023-05-14T01:03:36.974Z,10.30
2023-05-14T01:06:10.989Z,10.30
2023-05-14T01:08:49.230Z,10.67
2023-05-14T01:11:21.346Z,10.50
2023-05-14T01:13:58.191Z,9.90
2023-05-14T01:16:29.785Z,10.10
2023-05-14T01:19:00.055Z,10.90
2023-05-14T01:21:40.767Z,11.67
2023-05-14T01:24:09.353Z,10.40
2023-05-14T01:26:37.822Z,10.73
2023-05-14T01:29:14.831Z,11.53
2023-05-14T01:31:46.529Z,11.23
2023-05-14T01:34:15.610Z,12.53
2023-05-14T01:36:45.651Z,12.17
2023-05-14T01:39:15.711Z,11.87
2023-05-14T01:41:45.017Z,11.53
2023-05-14T01:44:13.709Z,11.80
2023-05-14T01:46:41.758Z,12.17
2023-05-14T01:49:09.787Z,12.67
2023-05-14T01:51:37.908Z,12.80
2023-05-14T01:54:07.276Z,12.60
2023-05-14T01:56:35.277Z,12.03
2023-05-14T01:59:04.469Z,12.97
2023-05-14T02:01:32.470Z,12.33
2023-05-14T02:04:01.107Z,14.60
2023-05-14T02:06:29.894Z,13.50
2023-05-14T02:08:57.974Z,13.27
2023-05-14T02:11:27.430Z,13.33
2023-05-14T02:13:55.437Z,13.03
2023-05-14T02:16:23.432Z,12.70
2023-05-14T02:18:52.890Z,13.37
2023-05-14T02:21:20.910Z,13.13
2023-05-14T02:23:49.542Z,12.00
2023-05-14T02:26:17.711Z,12.90
2023-05-14T02:28:46.989Z,13.63
2023-05-14T02:31:15.504Z,13.37
2023-05-14T02:33:43.562Z,13.97
2023-05-14T02:36:11.573Z,14.27
2023-05-14T02:38:39.633Z,13.80
2023-05-14T02:41:07.631Z,14.17
2023-05-14T02:43:37.028Z,14.03
2023-05-14T02:46:06.504Z,14.10
2023-05-14T02:48:34.978Z,14.57
2023-05-14T02:51:03.463Z,13.40
2023-05-14T02:53:31.501Z,14.57
2023-05-14T02:55:59.475Z,13.07
2023-05-14T02:58:28.515Z,12.83
2023-05-14T03:00:57.312Z,13.77
2023-05-14T03:03:27.305Z,13.23
2023-05-14T03:05:55.710Z,12.63
2023-05-14T03:08:23.715Z,12.30
2023-05-14T03:10:51.740Z,10.90
2023-05-14T03:13:20.783Z,9.67
2023-05-14T03:15:48.857Z,12.40
2023-05-14T03:18:17.058Z,9.93
2023-05-14T03:20:48.755Z,11.57
2023-05-14T03:23:16.809Z,12.07
2023-05-14T03:25:44.810Z,11.67
2023-05-14T03:28:12.795Z,12.23
2023-05-14T03:30:41.087Z,12.20
2023-05-14T03:33:09.163Z,10.80
2023-05-14T03:35:37.138Z,10.70
2023-05-14T03:38:06.454Z,11.30
2023-05-14T03:40:36.082Z,11.20
2023-05-14T03:43:04.090Z,10.87
2023-05-14T03:45:33.087Z,11.87
2023-05-14T03:48:01.103Z,12.77
2023-05-14T03:50:29.830Z,11.90
2023-05-14T03:52:57.800Z,12.10
2023-05-14T03:55:27.181Z,9.07
2023-05-14T03:57:55.148Z,10.20
2023-05-14T04:00:23.576Z,11.40
2023-05-14T04:02:52.858Z,10.73
2023-05-14T04:05:21.019Z,10.23
2023-05-14T04:07:49.206Z,9.70
2023-05-14T04:10:17.206Z,9.93
2023-05-14T04:12:46.547Z,10.53
2023-05-14T04:15:14.732Z,10.57
2023-05-14T04:17:44.071Z,12.30
2023-05-14T04:20:13.942Z,11.53
2023-05-14T04:22:41.907Z,12.63
2023-05-14T04:25:10.300Z,12.40
2023-05-14T04:27:38.340Z,12.20
2023-05-14T04:30:09.380Z,11.97
2023-05-14T04:32:37.865Z,12.70
2023-05-14T04:35:06.817Z,13.20
2023-05-14T04:37:34.714Z,13.97
2023-05-14T04:40:02.716Z,13.83
2023-05-14T04:42:30.654Z,13.40
2023-05-14T04:44:58.898Z,14.30
2023-05-14T04:47:28.239Z,14.63
2023-05-14T04:49:56.190Z,14.63
2023-05-14T04:52:24.169Z,14.17
2023-05-14T04:54:52.218Z,11.97
2023-05-14T04:57:20.213Z,10.20
2023-05-14T04:59:48.149Z,9.50
2023-05-14T05:02:16.119Z,9.10
2023-05-14T05:04:45.489Z,9.00
2023-05-14T05:07:15.408Z,9.17
2023-05-14T05:09:44.211Z,8.43
2023-05-14T05:12:12.160Z,8.23
2023-05-14T05:14:40.602Z,6.93
2023-05-14T05:17:08.639Z,6.40
2023-05-14T05:19:43.855Z,6.30
2023-05-14T05:22:13.920Z,6.17
2023-05-14T05:24:41.996Z,6.50
2023-05-14T05:27:10.126Z,6.00
2023-05-14T05:29:38.232Z,6.63
2023-05-14T05:32:07.393Z,7.37
2023-05-14T05:34:36.190Z,8.27
2023-05-14T05:37:05.893Z,8.07
2023-05-14T05:39:35.463Z,7.53
2023-05-14T05:42:03.736Z,8.60
2023-05-14T05:44:31.805Z,7.57
2023-05-14T05:46:59.926Z,8.60
2023-05-14T05:49:27.905Z,6.90
2023-05-14T05:51:55.855Z,8.20
2023-05-14T05:54:25.580Z,8.73
2023-05-14T05:56:54.889Z,9.83
2023-05-14T05:59:22.841Z,8.43
2023-05-14T06:01:50.835Z,8.97
2023-05-14T06:04:18.970Z,8.93
2023-05-14T06:06:46.971Z,9.13
2023-05-14T06:09:14.920Z,7.83
2023-05-14T06:11:42.899Z,9.57
2023-05-14T06:14:12.235Z,8.20
2023-05-14T06:16:40.276Z,8.60
2023-05-14T06:19:08.675Z,7.77
2023-05-14T06:21:36.668Z,8.77
2023-05-14T06:24:06.301Z,8.90
2023-05-14T06:26:34.300Z,8.57
2023-05-14T06:29:02.219Z,9.33
2023-05-14T06:31:31.541Z,10.30
2023-05-14T06:33:59.579Z,10.20
2023-05-14T06:36:27.534Z,10.23
2023-05-14T06:38:55.466Z,10.83
2023-05-14T06:41:23.630Z,10.90
2023-05-14T06:43:51.618Z,10.47
2023-05-14T06:46:19.558Z,10.10
2023-05-14T06:48:48.971Z,11.17
2023-05-14T06:51:17.084Z,10.20
2023-05-14T06:53:45.064Z,11.10
2023-05-14T06:56:14.610Z,10.23
2023-05-14T06:58:42.562Z,11.50
2023-05-14T07:01:10.643Z,10.17
2023-05-14T07:03:39.074Z,11.60
2023-05-14T07:06:08.622Z,10.83
2023-05-14T07:08:36.866Z,11.73
2023-05-14T07:11:04.831Z,10.83
2023-05-14T07:13:32.767Z,11.60
2023-05-14T07:16:00.730Z,11.27
2023-05-14T07:18:28.772Z,11.53
2023-05-14T07:20:56.796Z,11.70
2023-05-14T07:23:26.111Z,11.13
2023-05-14T07:25:54.122Z,11.70
2023-05-14T07:28:22.103Z,12.20
2023-05-14T07:30:50.093Z,11.40
2023-05-14T07:33:18.077Z,11.83
2023-05-14T07:35:46.177Z,11.73
2023-05-14T07:38:14.166Z,11.73
2023-05-14T07:40:43.561Z,11.60
2023-05-14T07:43:11.676Z,10.90
2023-05-14T07:45:39.857Z,10.90
2023-05-14T07:48:08.067Z,12.50
2023-05-14T07:50:36.154Z,12.43
2023-05-14T07:53:04.117Z,11.57
2023-05-14T07:55:32.115Z,11.87
2023-05-14T07:58:01.479Z,11.70
2023-05-14T08:00:29.668Z,11.30
2023-05-14T08:02:57.702Z,11.37
2023-05-14T08:05:26.582Z,10.40
2023-05-14T08:07:54.540Z,11.03
2023-05-14T08:10:22.885Z,11.07
2023-05-14T08:12:51.134Z,10.27
2023-05-14T08:15:20.549Z,10.00
2023-05-14T08:17:48.601Z,10.60
2023-05-14T08:20:16.691Z,9.77
2023-05-14T08:22:44.647Z,9.27
2023-05-14T08:25:12.698Z,10.07
2023-05-14T08:27:40.811Z,9.90
2023-05-14T08:30:09.554Z,9.77
2023-05-14T08:32:39.378Z,9.13
2023-05-14T08:35:08.239Z,8.47
2023-05-14T08:37:36.251Z,7.80
2023-05-14T08:40:04.551Z,8.80
2023-05-14T08:42:32.780Z,9.73
2023-05-14T08:45:03.101Z,9.50
2023-05-14T08:47:32.376Z,8.70
2023-05-14T08:50:04.382Z,9.47
2023-05-14T08:52:33.292Z,10.43
2023-05-14T08:55:04.307Z,8.97
2023-05-14T08:57:34.250Z,9.73
2023-05-14T09:00:06.409Z,9.67
2023-05-14T09:02:36.456Z,8.40
2023-05-14T09:05:07.312Z,8.10
2023-05-14T09:07:35.428Z,8.30
2023-05-14T09:10:03.891Z,8.47
2023-05-14T09:12:32.325Z,7.33
2023-05-14T09:15:00.248Z,7.43
2023-05-14T09:17:28.806Z,9.37
2023-05-14T09:20:00.414Z,7.70
2023-05-14T09:22:32.156Z,8.60
2023-05-14T09:25:05.335Z,9.30
2023-05-14T09:27:34.398Z,7.97
2023-05-14T09:30:10.537Z,9.00
2023-05-14T09:32:40.110Z,8.07
2023-05-14T09:35:13.173Z,8.50
2023-05-14T09:37:44.679Z,8.30
2023-05-14T09:40:13.500Z,8.00
2023-05-14T09:42:44.059Z,6.77
2023-05-14T09:45:13.110Z,8.30
2023-05-14T09:47:41.211Z,7.70
2023-05-14T09:50:10.475Z,9.13
2023-05-14T09:52:40.824Z,9.07
2023-05-14T09:55:10.871Z,8.83
2023-05-14T09:57:38.876Z,8.90
2023-05-14T10:00:09.661Z,9.80
2023-05-14T10:02:40.521Z,9.40
2023-05-14T10:05:09.720Z,9.00
2023-05-14T10:07:41.979Z,8.60
2023-05-14T10:10:16.284Z,8.13
2023-05-14T10:12:47.303Z,9.37
2023-05-14T10:15:21.632Z,8.00
2023-05-14T10:17:53.843Z,7.38
2023-05-14T10:20:23.896Z,8.25
2023-05-14T10:22:52.585Z,8.87
2023-05-14T10:25:23.048Z,8.50
2023-05-14T10:27:51.125Z,9.70
2023-05-14T10:30:22.910Z,8.35
2023-05-14T10:32:55.990Z,8.50
2023-05-14T10:35:26.242Z,9.40
2023-05-14T10:37:54.464Z,7.37
2023-05-14T10:40:25.907Z,7.67
2023-05-14T10:42:55.678Z,7.70
2023-05-14T10:45:25.083Z,7.23
2023-05-14T10:47:53.121Z,8.30
2023-05-14T10:50:23.629Z,7.40
2023-05-14T10:52:55.624Z,6.88
2023-05-14T10:55:25.991Z,6.35
2023-05-14T10:57:53.987Z,6.43
2023-05-14T11:00:27.674Z,5.73
2023-05-14T11:02:58.694Z,6.23
2023-05-14T11:05:27.715Z,4.45
2023-05-14T11:07:58.941Z,6.27
2023-05-14T11:10:30.040Z,5.47
2023-05-14T11:12:58.900Z,5.37
2023-05-14T11:15:28.406Z,4.80
2023-05-14T11:17:57.333Z,4.37
2023-05-14T11:20:25.499Z,5.30
2023-05-14T11:22:53.812Z,4.83
2023-05-14T11:25:22.874Z,4.40
2023-05-14T11:27:55.883Z,4.70
2023-05-14T11:30:25.073Z,4.67
2023-05-14T11:32:54.281Z,4.30
2023-05-14T11:35:22.268Z,4.73
2023-05-14T11:37:53.447Z,3.90
2023-05-14T11:40:22.156Z,5.00
2023-05-14T11:42:53.558Z,5.60
2023-05-14T11:45:26.613Z,5.43
2023-05-14T11:47:55.008Z,4.40
2023-05-14T11:50:23.554Z,5.00
2023-05-14T11:52:51.790Z,4.63
2023-05-14T11:55:20.786Z,3.90
2023-05-14T11:57:48.915Z,3.90
2023-05-14T12:00:22.092Z,3.30
2023-05-14T12:02:50.671Z,3.23
2023-05-14T12:05:19.332Z,4.17
2023-05-14T12:07:47.901Z,3.50
2023-05-14T12:10:26.092Z,3.50
2023-05-14T12:12:54.463Z,3.00
2023-05-14T12:15:23.520Z,3.17
2023-05-14T12:17:52.504Z,3.23
2023-05-14T12:20:20.525Z,3.07
2023-05-14T12:22:48.515Z,2.80
2023-05-14T12:25:16.493Z,3.67
2023-05-14T12:27:46.894Z,3.17
2023-05-14T12:32:46.451Z,2.70
2023-05-14T12:35:14.536Z,2.90
2023-05-14T12:37:42.962Z,2.40
2023-05-14T12:40:11.615Z,2.53
2023-05-14T12:42:39.585Z,3.07
2023-05-14T12:45:09.824Z,2.87
2023-05-14T12:47:37.952Z,2.07
2023-05-14T12:50:06.985Z,1.93
2023-05-14T12:52:39.198Z,2.40
2023-05-14T12:55:08.782Z,2.40
2023-05-14T12:57:36.893Z,2.53
2023-05-14T13:00:07.892Z,2.50
2023-05-14T13:02:42.895Z,2.40
2023-05-14T13:05:11.625Z,2.83
2023-05-14T13:07:39.790Z,2.43
2023-05-14T13:10:09.448Z,2.50
2023-05-14T13:12:38.607Z,2.87
2023-05-14T13:15:07.476Z,2.80
2023-05-14T13:17:36.909Z,2.37
2023-05-14T13:20:06.098Z,1.90
2023-05-14T13:22:34.053Z,2.13
2023-05-14T13:25:02.095Z,1.83
2023-05-14T13:27:30.398Z,2.23
2023-05-14T13:29:58.847Z,2.30
2023-05-14T13:32:27.119Z,2.33
2023-05-14T13:34:56.510Z,2.20
2023-05-14T13:37:24.893Z,2.00
2023-05-14T13:39:52.938Z,2.30
2023-05-14T13:42:20.882Z,2.43
2023-05-14T13:44:48.865Z,2.57
2023-05-14T13:47:16.856Z,2.30
2023-05-14T13:49:44.913Z,2.80
2023-05-14T13:52:14.319Z,2.30
2023-05-14T13:54:42.277Z,2.47
2023-05-14T13:57:10.253Z,2.73
2023-05-14T13:59:38.265Z,2.50
2023-05-14T14:02:06.610Z,2.20
2023-05-14T14:04:35.224Z,2.23
2023-05-14T14:07:03.349Z,2.73
2023-05-14T14:09:35.006Z,2.33
2023-05-14T14:12:04.097Z,2.70
2023-05-14T14:14:32.136Z,2.40
2023-05-14T14:17:00.170Z,2.60
2023-05-14T14:19:28.120Z,2.63
2023-05-14T14:21:56.132Z,2.60
2023-05-14T14:24:24.130Z,2.17
2023-05-14T14:26:53.479Z,2.50
2023-05-14T14:29:23.769Z,2.50
2023-05-14T14:31:51.832Z,2.40
2023-05-14T14:34:19.853Z,2.43
2023-05-14T14:36:47.833Z,2.70
2023-05-14T14:39:15.761Z,2.30
2023-05-14T14:41:44.312Z,2.30
2023-05-14T14:44:13.678Z,2.30
2023-05-14T14:46:42.815Z,2.53
2023-05-14T14:49:10.839Z,2.73
2023-05-14T14:51:38.811Z,2.63
2023-05-14T14:54:06.900Z,2.50
2023-05-14T14:56:34.979Z,2.50
2023-05-14T14:59:03.355Z,2.43
2023-05-14T15:01:32.729Z,2.10
2023-05-14T15:04:00.708Z,2.50
2023-05-14T15:06:28.882Z,1.97
2023-05-14T15:08:56.836Z,2.60
2023-05-14T15:11:25.009Z,3.00
2023-05-14T15:13:52.938Z,2.13
2023-05-14T15:16:20.983Z,2.40
2023-05-14T15:18:50.329Z,2.60
2023-05-14T15:21:18.333Z,2.50
2023-05-14T15:23:46.326Z,3.20
2023-05-14T15:26:14.299Z,2.80
2023-05-14T15:28:42.563Z,2.87
2023-05-14T15:31:10.713Z,2.67
2023-05-14T15:33:38.676Z,2.40
2023-05-14T15:36:08.483Z,2.50
2023-05-14T15:38:36.564Z,3.00
2023-05-14T15:41:04.652Z,3.10
2023-05-14T15:43:32.614Z,2.47
2023-05-14T15:46:00.657Z,1.97
2023-05-14T15:48:28.641Z,3.10
2023-05-14T15:50:56.724Z,3.03
2023-05-14T15:53:26.285Z,3.10
2023-05-14T15:55:54.375Z,2.97
2023-05-14T15:58:22.416Z,2.77
2023-05-14T16:00:50.408Z,2.60
2023-05-14T16:03:18.981Z,2.40
2023-05-14T16:05:48.457Z,2.77
2023-05-14T16:08:16.480Z,2.70
2023-05-14T16:10:45.836Z,2.70
2023-05-14T16:13:13.905Z,2.43
2023-05-14T16:15:41.888Z,2.30
2023-05-14T16:18:09.880Z,3.17
2023-05-14T16:20:37.885Z,2.60
2023-05-14T16:23:05.979Z,2.40
2023-05-14T16:25:34.013Z,2.77
2023-05-14T16:28:03.397Z,2.63
2023-05-14T16:30:31.340Z,2.50
2023-05-14T16:32:59.354Z,3.33
2023-05-14T16:35:27.330Z,3.13
2023-05-14T16:37:55.386Z,2.90
2023-05-14T16:40:24.099Z,3.00
2023-05-14T16:42:52.288Z,2.60
2023-05-14T16:45:21.848Z,3.00
2023-05-14T16:47:50.093Z,2.43
2023-05-14T16:50:18.247Z,3.27
2023-05-14T16:52:46.158Z,2.63
2023-05-14T16:55:14.244Z,2.23
2023-05-14T16:57:43.632Z,2.73
2023-05-14T17:00:13.031Z,2.53
2023-05-14T17:02:42.457Z,2.77
2023-05-14T17:05:13.344Z,3.17
2023-05-14T17:07:41.302Z,2.40
2023-05-14T17:10:10.408Z,3.00
2023-05-14T17:12:38.409Z,2.57
2023-05-14T17:15:08.117Z,2.87
2023-05-14T17:17:36.134Z,2.60
2023-05-14T17:20:06.571Z,2.33
2023-05-14T17:22:34.699Z,2.50
2023-05-14T17:25:02.833Z,2.67
2023-05-14T17:27:33.165Z,2.60
2023-05-14T17:30:01.403Z,2.50
2023-05-14T17:32:29.607Z,2.97
2023-05-14T17:34:57.847Z,2.83
2023-05-14T17:37:27.342Z,3.20
2023-05-14T17:39:55.451Z,2.60
2023-05-14T17:42:23.392Z,2.90
2023-05-14T17:44:51.403Z,2.30
2023-05-14T17:47:20.550Z,2.83
2023-05-14T17:49:48.732Z,3.00
2023-05-14T17:52:16.739Z,2.30
2023-05-14T17:54:46.117Z,3.00
2023-05-14T17:57:14.125Z,2.67
2023-05-14T17:59:42.400Z,3.07
2023-05-14T18:02:10.354Z,2.67
2023-05-14T18:04:38.321Z,3.00
2023-05-14T18:07:06.484Z,3.07
2023-05-14T18:09:34.504Z,2.83
2023-05-14T18:12:03.817Z,2.50
2023-05-14T18:14:31.841Z,2.30
2023-05-14T18:16:59.952Z,2.50
2023-05-14T18:19:27.963Z,2.47
2023-05-14T18:21:56.068Z,2.60
2023-05-14T18:24:24.046Z,2.80
2023-05-14T18:26:52.114Z,2.97
2023-05-14T18:29:21.437Z,2.60
2023-05-14T18:31:49.468Z,2.67
2023-05-14T18:34:17.554Z,2.60
2023-05-14T18:36:45.580Z,3.03
2023-05-14T18:39:13.540Z,3.17
2023-05-14T18:41:41.473Z,2.77
2023-05-14T18:44:09.565Z,3.23
2023-05-14T18:46:39.065Z,3.50
2023-05-14T18:49:07.279Z,2.73
2023-05-14T18:51:35.281Z,2.93
2023-05-14T18:54:03.645Z,3.07
2023-05-14T18:56:31.775Z,2.50
2023-05-14T18:58:59.810Z,2.93
2023-05-14T19:01:28.288Z,2.27
2023-05-14T19:03:57.817Z,3.13
2023-05-14T19:06:25.964Z,2.60
2023-05-14T19:08:54.109Z,3.13
2023-05-14T19:11:22.578Z,2.50
2023-05-14T19:13:50.613Z,2.30
2023-05-14T19:16:18.660Z,2.97
2023-05-14T19:18:46.624Z,2.70
2023-05-14T19:21:16.192Z,2.70
2023-05-14T19:23:44.160Z,2.50
2023-05-14T19:26:12.108Z,2.80
2023-05-14T19:28:40.258Z,2.67
2023-05-14T19:31:08.306Z,3.30
2023-05-14T19:33:36.268Z,3.50
2023-05-14T19:36:04.551Z,4.00
2023-05-14T19:38:33.838Z,4.03
2023-05-14T19:41:01.854Z,3.77
2023-05-14T19:43:29.823Z,3.40
2023-05-14T19:45:59.477Z,2.90
2023-05-14T19:48:29.212Z,3.10
2023-05-14T19:50:57.177Z,3.50
2023-05-14T19:53:29.503Z,4.00
2023-05-14T19:55:59.424Z,3.17
2023-05-14T19:58:27.597Z,3.80
2023-05-14T20:00:56.704Z,4.37
2023-05-14T20:03:26.573Z,4.80
2023-05-14T20:05:55.806Z,3.83
2023-05-14T20:08:24.783Z,3.70
2023-05-14T20:10:53.114Z,3.40
2023-05-14T20:13:24.427Z,3.80
2023-05-14T20:15:54.997Z,4.23
2023-05-14T20:18:23.157Z,3.20
2023-05-14T20:20:51.760Z,4.00
2023-05-14T20:23:20.566Z,3.97
2023-05-14T20:25:48.714Z,3.43
2023-05-14T20:28:16.684Z,3.93
2023-05-14T20:30:46.132Z,4.40
2023-05-14T20:33:14.981Z,4.37
2023-05-14T20:35:44.087Z,3.90
2023-05-14T20:38:12.720Z,4.33
2023-05-14T20:40:41.293Z,3.87
2023-05-14T20:43:09.351Z,3.87
2023-05-14T20:45:37.400Z,4.70
2023-05-14T20:48:09.955Z,3.63
2023-05-14T20:50:38.101Z,3.70
2023-05-14T20:53:06.279Z,3.80
2023-05-14T20:55:34.259Z,4.17
2023-05-14T20:58:02.468Z,3.83
2023-05-14T21:00:30.581Z,4.20
2023-05-14T21:02:59.526Z,3.40
2023-05-14T21:05:28.939Z,4.30
2023-05-14T21:07:56.893Z,4.63
2023-05-14T21:10:25.568Z,4.40
2023-05-14T21:12:53.706Z,4.07
2023-05-14T21:15:21.671Z,4.07
2023-05-14T21:17:49.729Z,4.80
2023-05-14T21:20:17.701Z,4.53
2023-05-14T21:22:46.983Z,4.80
2023-05-14T21:25:14.944Z,4.77
2023-05-14T21:27:42.873Z,4.63
2023-05-14T21:30:12.024Z,4.93
2023-05-14T21:32:40.143Z,4.80
2023-05-14T21:35:08.828Z,4.80
2023-05-14T21:37:39.246Z,4.90
2023-05-14T21:40:12.095Z,6.17
2023-05-14T21:42:40.729Z,5.60
2023-05-14T21:45:09.487Z,5.93
2023-05-14T21:47:38.056Z,5.63
2023-05-14T21:50:07.168Z,5.30
2023-05-14T21:52:35.271Z,6.77
2023-05-14T21:55:03.281Z,6.40
2023-05-14T21:57:34.582Z,6.10
2023-05-14T22:00:03.784Z,6.20
2023-05-14T22:02:32.666Z,6.50
2023-05-14T22:05:00.655Z,7.27
2023-05-14T22:07:28.685Z,6.70
2023-05-14T22:09:56.685Z,6.90
2023-05-14T22:12:24.667Z,7.00
2023-05-14T22:14:54.011Z,7.63
2023-05-14T22:17:22.583Z,7.87
2023-05-14T22:19:50.645Z,6.63
2023-05-14T22:22:18.566Z,6.80
2023-05-14T22:24:46.554Z,8.10
2023-05-14T22:27:14.515Z,8.60
2023-05-14T22:29:42.491Z,8.20
2023-05-14T22:32:12.002Z,7.90
2023-05-14T22:34:39.950Z,7.53
2023-05-14T22:37:08.100Z,7.83
2023-05-14T22:39:36.077Z,8.93
2023-05-14T22:42:04.098Z,7.80
2023-05-14T22:44:32.051Z,7.80
2023-05-14T22:47:00.153Z,9.33
2023-05-14T22:49:29.431Z,7.80
2023-05-14T22:51:57.386Z,8.80
2023-05-14T22:54:25.366Z,9.67
2023-05-14T22:56:53.394Z,9.00
2023-05-14T22:59:23.582Z,9.20
2023-05-14T23:01:52.085Z,9.27
2023-05-14T23:04:20.126Z,9.93
2023-05-14T23:06:49.579Z,10.07
2023-05-14T23:09:17.530Z,10.27
2023-05-14T23:11:46.003Z,10.60
2023-05-14T23:14:14.002Z,8.83
2023-05-14T23:16:41.998Z,9.40
2023-05-14T23:19:10.189Z,9.33
2023-05-14T23:21:38.372Z,9.13
2023-05-14T23:24:11.994Z,9.97
2023-05-14T23:26:40.015Z,9.77
2023-05-14T23:29:07.968Z,10.37
2023-05-14T23:31:36.530Z,9.43
2023-05-14T23:34:04.506Z,10.30
2023-05-14T23:36:32.856Z,9.97
2023-05-14T23:39:01.132Z,10.30
2023-05-14T23:41:30.401Z,10.07
2023-05-14T23:43:58.412Z,11.03
2023-05-14T23:46:26.411Z,10.13
2023-05-14T23:48:57.093Z,10.03
2023-05-14T23:51:25.169Z,10.83
2023-05-14T23:53:58.117Z,10.53
2023-05-14T23:56:27.357Z,12.13
2023-05-14T23:58:57.021Z,10.50
